Time;durP1;ratioP1;P1;durP2;ratioP2;P2;SDS_P1;SDS_P2;PMS_P1;PMS_P2;Temp;Humidity;BMP_temperature;BMP_pressure;BME280_temperature;BME280_humidity;BME280_pressure;Samples;Min_cycle;Max_cycle;Signal;HPM_P1;HPM_P2
2023/09/19 00:02:29;;;;;;;7.43;5.38;;;;;;;;;;10107205;28;20046;-74
2023/09/19 00:07:25;;;;;;;6.75;5.60;;;;;;;;;;10088688;28;20518;-74
2023/09/19 00:12:22;;;;;;;6.78;5.50;;;;;;;;;;10103250;28;20463;-74
2023/09/19 00:17:18;;;;;;;10.50;6.03;;;;;;;;;;10104981;28;20530;-74
2023/09/19 00:22:15;;;;;;;7.00;6.30;;;;;;;;;;10098789;28;20145;-74
2023/09/19 00:27:12;;;;;;;11.45;6.53;;;;;;;;;;10107776;28;20426;-73
2023/09/19 00:32:08;;;;;;;8.35;6.18;;;;;;;;;;10109154;28;20577;-73
2023/09/19 00:37:04;;;;;;;6.53;5.80;;;;;;;;;;10099421;28;20507;-73
2023/09/19 00:42:04;;;;;;;7.97;6.03;;;;;;;;;;10106398;28;20046;-74
2023/09/19 00:47:02;;;;;;;6.45;5.80;;;;;;;;;;10098963;28;20047;-74
2023/09/19 00:51:59;;;;;;;8.43;5.70;;;;;;;;;;10086614;28;20062;-74
2023/09/19 00:56:56;;;;;;;8.35;6.82;;;;;;;;;;10086403;28;20081;-73
2023/09/19 01:01:54;;;;;;;7.03;5.93;;;;;;;;;;10103042;28;20509;-74
2023/09/19 01:06:53;;;;;;;6.82;6.05;;;;;;;;;;10089039;28;20141;-74
2023/09/19 01:11:51;;;;;;;7.22;6.53;;;;;;;;;;10095769;28;20106;-73
2023/09/19 01:16:53;;;;;;;9.25;6.20;;;;;;;;;;10094195;28;20466;-73
2023/09/19 01:21:49;;;;;;;;;;;;;;;;;;10104098;28;20054;-73
2023/09/19 01:26:55;;;;;;;8.82;6.88;;;;;;;;;;10092547;28;19926;-74
2023/09/19 01:31:54;;;;;;;7.45;6.47;;;;;;;;;;10084383;28;20053;-73
2023/09/19 01:36:50;;;;;;;8.32;6.22;;;;;;;;;;10095124;28;20058;-74
2023/09/19 01:41:46;;;;;;;6.18;5.25;;;;;;;;;;10103843;28;20523;-73
2023/09/19 01:46:47;;;;;;;9.05;5.95;;;;;;;;;;10074698;28;20498;-73
2023/09/19 01:51:55;;;;;;;7.30;5.80;;;;;;;;;;10134757;23;20046;-74
2023/09/19 01:56:54;;;;;;;10.32;6.13;;;;;;;;;;10135760;28;20097;-74
2023/09/19 02:01:51;;;;;;;5.88;4.90;;;;;;;;;;10139724;28;20057;-74
2023/09/19 02:06:48;;;;;;;7.70;5.88;;;;;;;;;;10152205;28;20061;-74
2023/09/19 02:11:44;;;;;;;7.25;5.63;;;;;;;;;;10152693;28;20101;-74
2023/09/19 02:16:41;;;;;;;11.02;5.90;;;;;;;;;;10146201;28;20062;-75
2023/09/19 02:21:40;;;;;;;8.05;5.43;;;;;;;;;;10140329;28;20072;-74
2023/09/19 02:26:36;;;;;;;6.88;5.63;;;;;;;;;;10147011;28;20095;-74
2023/09/19 02:37:20;;;;;;;;;;;;;;;;;;;;;
2023/09/19 02:42:59;;;;;;;9.77;6.38;;;;;;;;;;10059840;28;20838;-74
2023/09/19 02:48:54;;;;;;;7.68;6.65;;;;;;;;;;10078839;28;20454;-74
2023/09/19 02:54:11;;;;;;;9.23;6.40;;;;;;;;;;9900915;29;20487;-74
2023/09/19 02:59:25;;;;;;;9.68;7.43;;;;;;;;;;9881135;29;20065;-74
2023/09/19 03:05:17;;;;;;;13.00;6.82;;;;;;;;;;9902909;29;20056;-74
2023/09/19 03:11:07;;;;;;;12.27;6.00;;;;;;;;;;9872509;29;20065;-74
2023/09/19 03:16:14;;;;;;;8.35;5.93;;;;;;;;;;9892763;29;20053;-74
2023/09/19 04:06:54;;;;;;;8.18;5.68;;;;;;;;;;10544159;23;20057;-73
2023/09/19 04:22:12;;;;;;;15.07;5.90;;;;;;;;;;10066304;28;20043;-74
2023/09/19 04:27:09;;;;;;;5.85;5.20;;;;;;;;;;10061289;28;20110;-74
2023/09/19 04:54:27;;;;;;;11.85;6.75;;;;;;;;;;10366491;22;20054;-73
2023/09/19 05:09:47;;;;;;;10.80;6.40;;;;;;;;;;10651751;23;20430;-73
2023/09/19 05:14:43;;;;;;;13.95;7.47;;;;;;;;;;10131015;28;20117;-73
2023/09/19 05:19:39;;;;;;;9.93;6.55;;;;;;;;;;10144015;28;20046;-73
2023/09/19 05:24:36;;;;;;;10.60;7.00;;;;;;;;;;10142852;28;20042;-73
2023/09/19 05:34:44;;;;;;;13.18;6.78;;;;;;;;;;6017099;22;20446;-74
2023/09/19 05:50:05;;;;;;;8.73;7.47;;;;;;;;;;10780631;22;20130;-74
2023/09/19 05:55:01;;;;;;;12.50;7.10;;;;;;;;;;10105248;28;20055;-73
2023/09/19 06:05:12;;;;;;;11.88;7.43;;;;;;;;;;10133346;26;20050;-73
2023/09/19 06:15:08;;;;;;;9.85;7.10;;;;;;;;;;10140313;28;20046;-73
2023/09/19 06:20:10;;;;;;;9.43;7.18;;;;;;;;;;10150779;28;20142;-73
2023/09/19 06:25:07;;;;;;;;;;;;;;;;;;10145674;28;20061;-73
2023/09/19 06:46:46;;;;;;;9.60;6.43;;;;;;;;;;10102875;26;20059;-73
2023/09/19 06:56:55;;;;;;;9.27;6.45;;;;;;;;;;12024112;23;20046;-73
2023/09/19 07:07:33;;;;;;;13.07;6.45;;;;;;;;;;10559378;22;20138;-73
2023/09/19 07:12:32;;;;;;;12.85;5.85;;;;;;;;;;10109445;28;20073;-73
2023/09/19 07:18:17;;;;;;;11.55;7.15;;;;;;;;;;10146384;28;20057;-73
2023/09/19 07:22:55;;;;;;;15.75;7.03;;;;;;;;;;10134777;28;20121;-73
2023/09/19 07:27:54;;;;;;;12.73;6.45;;;;;;;;;;10138148;28;20042;-72
2023/09/19 07:38:02;;;;;;;17.27;7.65;;;;;;;;;;10150769;22;20412;-74
2023/09/19 07:43:01;;;;;;;11.48;7.18;;;;;;;;;;10395506;23;20042;-73
2023/09/19 07:48:00;;;;;;;14.13;7.65;;;;;;;;;;10128398;28;20049;-72
2023/09/19 07:53:30;;;;;;;14.73;7.75;;;;;;;;;;10221296;23;20089;-73
2023/09/19 07:58:28;;;;;;;14.75;7.97;;;;;;;;;;10135076;28;20053;-73
2023/09/19 08:03:24;;;;;;;11.88;7.47;;;;;;;;;;10385782;22;20046;-73
2023/09/19 08:08:21;;;;;;;11.70;6.53;;;;;;;;;;10150923;28;20057;-73
2023/09/19 08:13:18;;;;;;;9.95;7.05;;;;;;;;;;10137895;28;20439;-73
2023/09/19 08:18:15;;;;;;;10.80;7.35;;;;;;;;;;10126497;28;20153;-73
2023/09/19 08:34:38;;;;;;;13.35;7.15;;;;;;;;;;4316802;22;20327;-73
2023/09/19 08:39:36;;;;;;;11.68;6.68;;;;;;;;;;10191935;28;20466;-73
2023/09/19 08:44:36;;;;;;;11.77;7.03;;;;;;;;;;10137226;28;20503;-73
2023/09/19 08:49:50;;;;;;;15.75;7.65;;;;;;;;;;10127321;28;20042;-73
2023/09/19 08:54:48;;;;;;;10.05;6.85;;;;;;;;;;10120129;28;20039;-73
2023/09/19 08:59:47;;;;;;;13.48;7.55;;;;;;;;;;10140305;28;20073;-73
2023/09/19 09:04:44;;;;;;;14.10;7.05;;;;;;;;;;10144729;28;20100;-74
2023/09/19 09:09:42;;;;;;;12.43;6.70;;;;;;;;;;10136645;28;20557;-75
2023/09/19 09:14:39;;;;;;;11.85;6.90;;;;;;;;;;10142319;28;20133;-74
2023/09/19 09:19:35;;;;;;;13.73;7.03;;;;;;;;;;10123281;28;20081;-73
2023/09/19 09:24:33;;;;;;;14.10;7.30;;;;;;;;;;10129179;28;20845;-73
2023/09/19 09:29:54;;;;;;;14.38;7.63;;;;;;;;;;10143803;23;20051;-74
2023/09/19 09:34:55;;;;;;;16.45;8.23;;;;;;;;;;10146449;28;20042;-73
2023/09/19 09:39:58;;;;;;;;;;;;;;;;;;10145194;28;20047;-74
2023/09/19 09:45:13;;;;;;;12.23;9.00;;;;;;;;;;10112667;28;19926;-73
2023/09/19 10:25:22;;;;;;;11.15;6.72;;;;;;;;;;9969789;26;20050;-73
2023/09/19 10:35:32;;;;;;;15.93;7.30;;;;;;;;;;10169796;28;20088;-73
2023/09/19 10:40:52;;;;;;;11.23;7.03;;;;;;;;;;10045388;28;20067;-73
2023/09/19 10:46:51;;;;;;;;;;;;;;;;;;;;;
2023/09/19 10:51:58;;;;;;;14.45;7.00;;;;;;;;;;10059636;28;20055;-73
2023/09/19 10:56:54;;;;;;;10.95;6.43;;;;;;;;;;10064304;28;20087;-73
2023/09/19 11:08:27;;;;;;;8.85;7.28;;;;;;;;;;10012686;28;20047;-74
2023/09/19 11:13:30;;;;;;;13.65;7.30;;;;;;;;;;10069183;28;20055;-73
2023/09/19 11:30:58;;;;;;;12.63;7.50;;;;;;;;;;10161998;28;20033;-74
2023/09/19 12:38:20;;;;;;;9.52;7.20;;;;;;;;;;10217870;23;20062;-73
2023/09/19 13:10:04;;;;;;;11.07;7.80;;;;;;;;;;10196275;22;20058;-73
2023/09/19 13:15:13;;;;;;;14.27;7.47;;;;;;;;;;10149624;28;20136;-73
2023/09/19 13:20:22;;;;;;;13.55;7.82;;;;;;;;;;10136642;28;20659;-73
2023/09/19 13:25:19;;;;;;;14.52;7.57;;;;;;;;;;10164488;28;20046;-73
2023/09/19 14:02:11;;;;;;;10.32;8.23;;;;;;;;;;10163553;28;20685;-74
2023/09/19 14:07:08;;;;;;;14.18;7.70;;;;;;;;;;10159728;28;20149;-73
2023/09/19 14:17:15;;;;;;;12.67;7.23;;;;;;;;;;10231013;22;20050;-73
2023/09/19 14:56:08;;;;;;;9.25;7.55;;;;;;;;;;10116411;28;20046;-74
2023/09/19 15:28:13;;;;;;;15.35;7.75;;;;;;;;;;10157871;28;20045;-74
2023/09/19 15:33:10;;;;;;;11.68;8.07;;;;;;;;;;10155595;28;20125;-73
2023/09/19 15:38:07;;;;;;;14.02;7.97;;;;;;;;;;10147866;28;20069;-73
2023/09/19 15:43:03;;;;;;;12.77;8.13;;;;;;;;;;10133849;28;20137;-73
2023/09/19 15:48:00;;;;;;;8.48;7.65;;;;;;;;;;10162429;28;20679;-73
2023/09/19 16:04:08;;;;;;;11.07;8.05;;;;;;;;;;10029008;29;20047;-73
2023/09/19 16:09:05;;;;;;;14.68;7.55;;;;;;;;;;10030645;29;20047;-73
2023/09/19 16:14:02;;;;;;;13.85;7.90;;;;;;;;;;10026618;29;20542;-73
2023/09/19 16:19:02;;;;;;;10.50;8.15;;;;;;;;;;10024586;29;20607;-73
2023/09/19 16:23:59;;;;;;;10.20;7.57;;;;;;;;;;10021978;29;20523;-73
2023/09/19 16:29:00;;;;;;;18.30;8.95;;;;;;;;;;10029807;29;20079;-73
2023/09/19 16:39:08;;;;;;;12.40;8.13;;;;;;;;;;9946966;23;20055;-73
2023/09/19 16:44:36;;;;;;;10.68;8.00;;;;;;;;;;10122420;22;20570;-73
2023/09/19 16:50:05;;;;;;;12.25;8.20;;;;;;;;;;10003562;28;20051;-73
2023/09/19 17:07:26;;;;;;;14.05;8.23;;;;;;;;;;9898608;29;20085;-74
2023/09/19 17:12:57;;;;;;;12.63;7.63;;;;;;;;;;10279615;23;20747;-74
2023/09/19 17:23:53;;;;;;;13.25;7.57;;;;;;;;;;10129529;28;20108;-73
2023/09/19 17:28:50;;;;;;;9.77;7.40;;;;;;;;;;10145604;28;20051;-73
2023/09/19 17:34:01;;;;;;;;;;;;;;;;;;;;;
2023/09/19 17:50:42;;;;;;;12.15;8.00;;;;;;;;;;10106533;28;20046;-72
2023/09/19 17:55:38;;;;;;;12.15;7.60;;;;;;;;;;10148959;28;20057;-73
2023/09/19 18:22:55;;;;;;;8.57;7.38;;;;;;;;;;10146766;28;20114;-73
2023/09/19 18:27:52;;;;;;;10.52;7.57;;;;;;;;;;10133159;28;20054;-73
2023/09/19 18:32:51;;;;;;;8.45;7.18;;;;;;;;;;10151041;28;20065;-72
2023/09/19 18:37:55;;;;;;;11.73;7.07;;;;;;;;;;10148201;28;20623;-73
2023/09/19 18:54:02;;;;;;;7.85;6.80;;;;;;;;;;10614171;23;20043;-73
2023/09/19 18:59:10;;;;;;;14.40;6.50;;;;;;;;;;10092599;28;20147;-73
2023/09/19 19:04:06;;;;;;;8.80;7.00;;;;;;;;;;10267893;23;20084;-72
2023/09/19 19:09:03;;;;;;;12.32;6.82;;;;;;;;;;10189952;28;20041;-73
2023/09/19 19:13:59;;;;;;;15.27;7.00;;;;;;;;;;10138660;28;20042;-72
2023/09/19 19:18:55;;;;;;;10.60;6.28;;;;;;;;;;10153859;28;20058;-72
2023/09/19 19:39:20;;;;;;;12.30;7.28;;;;;;;;;;9904116;26;20515;-75
2023/09/19 19:44:17;;;;;;;10.35;6.60;;;;;;;;;;10098478;28;20364;-72
2023/09/19 19:49:15;;;;;;;8.35;6.68;;;;;;;;;;10099938;28;20110;-72
2023/09/19 19:54:12;;;;;;;6.90;6.18;;;;;;;;;;10275522;23;20113;-72
2023/09/19 19:59:17;;;;;;;7.20;6.35;;;;;;;;;;10137892;28;20054;-74
2023/09/19 20:15:26;;;;;;;12.50;6.50;;;;;;;;;;5158308;26;20047;-73
2023/09/19 20:25:28;;;;;;;8.82;6.45;;;;;;;;;;8434799;26;20054;-73
2023/09/19 20:30:24;;;;;;;8.52;6.63;;;;;;;;;;10142304;28;20125;-73
2023/09/19 20:35:21;;;;;;;6.25;5.63;;;;;;;;;;10148830;28;20050;-73
2023/09/19 20:40:20;;;;;;;11.40;6.47;;;;;;;;;;10144302;28;20320;-74
2023/09/19 20:45:16;;;;;;;8.55;5.90;;;;;;;;;;10153813;28;20074;-72
2023/09/19 20:55:18;;;;;;;6.95;5.18;;;;;;;;;;6284737;26;20057;-73
2023/09/19 21:00:14;;;;;;;8.70;5.75;;;;;;;;;;10136711;28;20058;-73
2023/09/19 21:05:12;;;;;;;8.00;5.78;;;;;;;;;;10102878;28;20069;-73
2023/09/19 21:10:08;;;;;;;6.63;5.95;;;;;;;;;;10102458;28;20042;-73
2023/09/19 21:15:06;;;;;;;8.98;6.97;;;;;;;;;;10085654;28;20082;-73
2023/09/19 21:31:09;;;;;;;5.85;5.22;;;;;;;;;;10158232;28;20047;-73
2023/09/19 21:36:08;;;;;;;9.68;5.38;;;;;;;;;;10124919;28;20042;-72
2023/09/19 21:41:15;;;;;;;10.95;6.50;;;;;;;;;;10152449;23;20133;-73
2023/09/19 21:46:11;;;;;;;6.60;5.60;;;;;;;;;;10140863;28;20267;-73
2023/09/19 21:51:08;;;;;;;6.88;5.82;;;;;;;;;;10146822;28;20082;-73
2023/09/19 21:56:05;;;;;;;6.68;5.80;;;;;;;;;;10146927;28;20046;-73
2023/09/19 22:06:16;;;;;;;9.25;5.75;;;;;;;;;;5756601;26;20069;-73
2023/09/19 22:11:15;;;;;;;10.20;6.75;;;;;;;;;;10091124;28;20082;-72
2023/09/19 22:16:14;;;;;;;9.25;5.82;;;;;;;;;;10100128;28;20070;-73
2023/09/19 22:21:12;;;;;;;10.50;6.22;;;;;;;;;;10105838;28;20057;-72
2023/09/19 22:26:13;;;;;;;9.52;6.32;;;;;;;;;;10118216;28;20065;-73
2023/09/19 22:31:14;;;;;;;8.48;6.68;;;;;;;;;;10113339;28;20141;-72
2023/09/19 22:36:12;;;;;;;8.60;6.90;;;;;;;;;;10099978;28;20257;-73
2023/09/19 22:41:10;;;;;;;7.95;7.18;;;;;;;;;;10116717;28;20121;-73
2023/09/19 22:46:08;;;;;;;10.75;7.10;;;;;;;;;;10114492;28;20066;-73
2023/09/19 22:51:07;;;;;;;7.32;6.63;;;;;;;;;;10095959;28;20082;-73
2023/09/19 22:56:10;;;;;;;9.02;7.30;;;;;;;;;;10114051;28;20633;-73
2023/09/19 23:06:29;;;;;;;11.73;7.10;;;;;;;;;;10112500;28;20483;-73
2023/09/19 23:16:42;;;;;;;7.67;6.83;;;;;;;;;;8985185;26;20133;-73
2023/09/19 23:21:44;;;;;;;7.70;6.90;;;;;;;;;;10148198;28;20050;-73
2023/09/19 23:26:45;;;;;;;7.43;6.78;;;;;;;;;;10149481;28;20765;-73
2023/09/19 23:37:46;;;;;;;10.35;6.93;;;;;;;;;;10149380;28;20038;-73
2023/09/19 23:42:43;;;;;;;8.63;6.72;;;;;;;;;;10118625;28;20109;-73
2023/09/19 23:47:40;;;;;;;10.02;6.10;;;;;;;;;;10118818;28;20093;-73
2023/09/19 23:52:37;;;;;;;10.98;6.20;;;;;;;;;;10120303;28;20043;-73
2023/09/19 23:57:35;;;;;;;6.80;5.80;;;;;;;;;;10115901;28;20113;-73
